sensor_id;sensor_type;location;lat;lon;timestamp;P1;durP1;ratioP1;P2;durP2;ratioP2
54193;SDS011;40102;50.906;6.972;2023-04-15T00:00:16;4.55;;;2.33;;
54193;SDS011;40102;50.906;6.972;2023-04-15T00:02:41;5.55;;;1.80;;
54193;SDS011;40102;50.906;6.972;2023-04-15T00:05:08;5.25;;;1.80;;
54193;SDS011;40102;50.906;6.972;2023-04-15T00:07:34;4.63;;;1.92;;
54193;SDS011;40102;50.906;6.972;2023-04-15T00:10:00;4.93;;;2.20;;
54193;SDS011;40102;50.906;6.972;2023-04-15T00:12:26;4.97;;;2.10;;
54193;SDS011;40102;50.906;6.972;2023-04-15T00:14:52;4.03;;;1.92;;
54193;SDS011;40102;50.906;6.972;2023-04-15T00:17:17;3.42;;;1.65;;
54193;SDS011;40102;50.906;6.972;2023-04-15T00:19:42;2.72;;;1.55;;
54193;SDS011;40102;50.906;6.972;2023-04-15T00:22:11;3.90;;;1.70;;
54193;SDS011;40102;50.906;6.972;2023-04-15T00:24:37;3.80;;;1.85;;
54193;SDS011;40102;50.906;6.972;2023-04-15T00:27:03;9.80;;;2.72;;
54193;SDS011;40102;50.906;6.972;2023-04-15T00:29:29;3.20;;;1.83;;
54193;SDS011;40102;50.906;6.972;2023-04-15T00:31:55;4.47;;;2.10;;
54193;SDS011;40102;50.906;6.972;2023-04-15T00:34:21;5.30;;;2.15;;
54193;SDS011;40102;50.906;6.972;2023-04-15T00:36:47;4.43;;;2.05;;
54193;SDS011;40102;50.906;6.972;2023-04-15T00:39:13;4.53;;;1.95;;
54193;SDS011;40102;50.906;6.972;2023-04-15T00:41:38;3.90;;;1.88;;
54193;SDS011;40102;50.906;6.972;2023-04-15T00:44:06;2.92;;;2.05;;
54193;SDS011;40102;50.906;6.972;2023-04-15T00:46:32;4.35;;;2.13;;
54193;SDS011;40102;50.906;6.972;2023-04-15T00:49:01;3.35;;;2.15;;
54193;SDS011;40102;50.906;6.972;2023-04-15T00:51:28;5.07;;;2.03;;
54193;SDS011;40102;50.906;6.972;2023-04-15T00:53:53;5.10;;;2.10;;
54193;SDS011;40102;50.906;6.972;2023-04-15T00:56:19;5.38;;;2.40;;
54193;SDS011;40102;50.906;6.972;2023-04-15T00:58:48;3.40;;;2.13;;
54193;SDS011;40102;50.906;6.972;2023-04-15T01:01:15;4.18;;;2.33;;
54193;SDS011;40102;50.906;6.972;2023-04-15T01:03:41;5.53;;;2.40;;
54193;SDS011;40102;50.906;6.972;2023-04-15T01:06:06;5.43;;;2.50;;
54193;SDS011;40102;50.906;6.972;2023-04-15T01:08:32;4.22;;;2.20;;
54193;SDS011;40102;50.906;6.972;2023-04-15T01:10:58;4.03;;;2.38;;
54193;SDS011;40102;50.906;6.972;2023-04-15T01:13:27;4.40;;;2.65;;
54193;SDS011;40102;50.906;6.972;2023-04-15T01:15:53;4.15;;;2.40;;
54193;SDS011;40102;50.906;6.972;2023-04-15T01:18:21;4.72;;;2.70;;
54193;SDS011;40102;50.906;6.972;2023-04-15T01:20:47;4.32;;;2.50;;
54193;SDS011;40102;50.906;6.972;2023-04-15T01:23:12;6.50;;;2.78;;
54193;SDS011;40102;50.906;6.972;2023-04-15T01:25:38;10.77;;;2.83;;
54193;SDS011;40102;50.906;6.972;2023-04-15T01:28:04;6.07;;;2.67;;
54193;SDS011;40102;50.906;6.972;2023-04-15T01:30:33;4.78;;;2.28;;
54193;SDS011;40102;50.906;6.972;2023-04-15T01:32:58;6.97;;;2.50;;
54193;SDS011;40102;50.906;6.972;2023-04-15T01:35:24;5.70;;;2.80;;
54193;SDS011;40102;50.906;6.972;2023-04-15T01:37:49;4.53;;;2.60;;
54193;SDS011;40102;50.906;6.972;2023-04-15T01:40:15;6.22;;;2.72;;
54193;SDS011;40102;50.906;6.972;2023-04-15T01:42:40;6.32;;;2.80;;
54193;SDS011;40102;50.906;6.972;2023-04-15T01:45:06;5.63;;;2.50;;
54193;SDS011;40102;50.906;6.972;2023-04-15T01:47:32;5.25;;;2.78;;
54193;SDS011;40102;50.906;6.972;2023-04-15T01:49:57;5.20;;;2.78;;
54193;SDS011;40102;50.906;6.972;2023-04-15T01:52:22;7.25;;;2.60;;
54193;SDS011;40102;50.906;6.972;2023-04-15T01:54:50;8.25;;;2.83;;
54193;SDS011;40102;50.906;6.972;2023-04-15T01:57:16;5.45;;;2.53;;
54193;SDS011;40102;50.906;6.972;2023-04-15T01:59:41;6.45;;;2.70;;
54193;SDS011;40102;50.906;6.972;2023-04-15T02:02:06;7.18;;;2.53;;
54193;SDS011;40102;50.906;6.972;2023-04-15T02:04:32;5.45;;;2.60;;
54193;SDS011;40102;50.906;6.972;2023-04-15T02:06:58;10.98;;;2.80;;
54193;SDS011;40102;50.906;6.972;2023-04-15T02:09:23;6.13;;;2.60;;
54193;SDS011;40102;50.906;6.972;2023-04-15T02:11:49;5.07;;;2.45;;
54193;SDS011;40102;50.906;6.972;2023-04-15T02:14:16;6.15;;;2.47;;
54193;SDS011;40102;50.906;6.972;2023-04-15T02:16:41;3.90;;;2.50;;
54193;SDS011;40102;50.906;6.972;2023-04-15T02:19:06;4.28;;;2.47;;
54193;SDS011;40102;50.906;6.972;2023-04-15T02:21:32;5.03;;;2.70;;
54193;SDS011;40102;50.906;6.972;2023-04-15T02:23:59;6.97;;;2.80;;
54193;SDS011;40102;50.906;6.972;2023-04-15T02:26:24;5.03;;;2.70;;
54193;SDS011;40102;50.906;6.972;2023-04-15T02:28:50;4.50;;;2.58;;
54193;SDS011;40102;50.906;6.972;2023-04-15T02:31:15;10.30;;;2.70;;
54193;SDS011;40102;50.906;6.972;2023-04-15T02:33:41;4.60;;;2.60;;
54193;SDS011;40102;50.906;6.972;2023-04-15T02:36:06;6.78;;;2.60;;
54193;SDS011;40102;50.906;6.972;2023-04-15T02:38:32;6.97;;;2.40;;
54193;SDS011;40102;50.906;6.972;2023-04-15T02:40:57;5.65;;;2.38;;
54193;SDS011;40102;50.906;6.972;2023-04-15T02:43:23;3.22;;;2.25;;
54193;SDS011;40102;50.906;6.972;2023-04-15T02:45:48;7.18;;;3.17;;
54193;SDS011;40102;50.906;6.972;2023-04-15T02:48:13;7.30;;;2.80;;
54193;SDS011;40102;50.906;6.972;2023-04-15T02:50:41;5.10;;;3.00;;
54193;SDS011;40102;50.906;6.972;2023-04-15T02:53:07;6.95;;;3.00;;
54193;SDS011;40102;50.906;6.972;2023-04-15T02:55:32;6.22;;;3.22;;
54193;SDS011;40102;50.906;6.972;2023-04-15T02:57:58;6.78;;;2.90;;
54193;SDS011;40102;50.906;6.972;2023-04-15T03:00:24;5.55;;;2.80;;
54193;SDS011;40102;50.906;6.972;2023-04-15T03:02:50;6.88;;;2.67;;
54193;SDS011;40102;50.906;6.972;2023-04-15T03:05:20;7.28;;;2.53;;
54193;SDS011;40102;50.906;6.972;2023-04-15T03:07:47;5.05;;;2.63;;
54193;SDS011;40102;50.906;6.972;2023-04-15T03:10:12;5.25;;;2.70;;
54193;SDS011;40102;50.906;6.972;2023-04-15T03:12:38;6.20;;;3.13;;
54193;SDS011;40102;50.906;6.972;2023-04-15T03:15:04;9.70;;;3.08;;
54193;SDS011;40102;50.906;6.972;2023-04-15T03:17:30;6.97;;;2.83;;
54193;SDS011;40102;50.906;6.972;2023-04-15T03:19:56;6.47;;;2.97;;
54193;SDS011;40102;50.906;6.972;2023-04-15T03:22:21;6.85;;;2.78;;
54193;SDS011;40102;50.906;6.972;2023-04-15T03:24:47;9.50;;;3.50;;
54193;SDS011;40102;50.906;6.972;2023-04-15T03:27:12;6.18;;;3.17;;
54193;SDS011;40102;50.906;6.972;2023-04-15T03:29:37;9.15;;;3.42;;
54193;SDS011;40102;50.906;6.972;2023-04-15T03:32:03;6.18;;;2.80;;
54193;SDS011;40102;50.906;6.972;2023-04-15T03:34:28;7.65;;;2.80;;
54193;SDS011;40102;50.906;6.972;2023-04-15T03:36:54;8.48;;;3.17;;
54193;SDS011;40102;50.906;6.972;2023-04-15T03:39:20;5.45;;;2.80;;
54193;SDS011;40102;50.906;6.972;2023-04-15T03:41:45;5.55;;;2.80;;
54193;SDS011;40102;50.906;6.972;2023-04-15T03:44:11;4.55;;;2.40;;
54193;SDS011;40102;50.906;6.972;2023-04-15T03:46:36;4.07;;;2.30;;
54193;SDS011;40102;50.906;6.972;2023-04-15T03:49:01;4.65;;;2.70;;
54193;SDS011;40102;50.906;6.972;2023-04-15T03:51:27;4.75;;;2.47;;
54193;SDS011;40102;50.906;6.972;2023-04-15T03:53:52;5.95;;;2.80;;
54193;SDS011;40102;50.906;6.972;2023-04-15T03:56:17;8.82;;;3.15;;
54193;SDS011;40102;50.906;6.972;2023-04-15T03:58:43;5.43;;;2.72;;
54193;SDS011;40102;50.906;6.972;2023-04-15T04:01:08;5.95;;;3.63;;
54193;SDS011;40102;50.906;6.972;2023-04-15T04:03:33;4.72;;;2.22;;
54193;SDS011;40102;50.906;6.972;2023-04-15T04:05:59;4.88;;;2.75;;
54193;SDS011;40102;50.906;6.972;2023-04-15T04:08:24;6.40;;;2.92;;
54193;SDS011;40102;50.906;6.972;2023-04-15T04:10:51;7.05;;;2.58;;
54193;SDS011;40102;50.906;6.972;2023-04-15T04:13:16;5.57;;;2.70;;
54193;SDS011;40102;50.906;6.972;2023-04-15T04:15:42;6.30;;;2.85;;
54193;SDS011;40102;50.906;6.972;2023-04-15T04:18:07;7.88;;;2.58;;
54193;SDS011;40102;50.906;6.972;2023-04-15T04:20:32;6.25;;;2.67;;
54193;SDS011;40102;50.906;6.972;2023-04-15T04:22:58;6.60;;;3.20;;
54193;SDS011;40102;50.906;6.972;2023-04-15T04:25:23;4.25;;;2.58;;
54193;SDS011;40102;50.906;6.972;2023-04-15T04:27:49;4.10;;;2.50;;
54193;SDS011;40102;50.906;6.972;2023-04-15T04:30:14;3.53;;;2.08;;
54193;SDS011;40102;50.906;6.972;2023-04-15T04:32:40;3.55;;;2.40;;
54193;SDS011;40102;50.906;6.972;2023-04-15T04:35:05;5.90;;;2.60;;
54193;SDS011;40102;50.906;6.972;2023-04-15T04:37:31;4.05;;;2.28;;
54193;SDS011;40102;50.906;6.972;2023-04-15T04:39:56;5.72;;;2.30;;
54193;SDS011;40102;50.906;6.972;2023-04-15T04:42:21;4.10;;;2.17;;
54193;SDS011;40102;50.906;6.972;2023-04-15T04:44:47;3.22;;;2.30;;
54193;SDS011;40102;50.906;6.972;2023-04-15T04:47:12;5.15;;;2.22;;
54193;SDS011;40102;50.906;6.972;2023-04-15T04:49:38;3.75;;;2.70;;
54193;SDS011;40102;50.906;6.972;2023-04-15T04:52:03;5.32;;;2.17;;
54193;SDS011;40102;50.906;6.972;2023-04-15T04:54:28;4.00;;;2.30;;
54193;SDS011;40102;50.906;6.972;2023-04-15T04:56:55;7.15;;;2.53;;
54193;SDS011;40102;50.906;6.972;2023-04-15T04:59:21;4.35;;;2.38;;
54193;SDS011;40102;50.906;6.972;2023-04-15T05:01:47;5.65;;;2.40;;
54193;SDS011;40102;50.906;6.972;2023-04-15T05:04:12;4.00;;;2.22;;
54193;SDS011;40102;50.906;6.972;2023-04-15T05:06:38;4.07;;;2.58;;
54193;SDS011;40102;50.906;6.972;2023-04-15T05:09:03;4.35;;;2.35;;
54193;SDS011;40102;50.906;6.972;2023-04-15T05:11:28;4.93;;;2.40;;
54193;SDS011;40102;50.906;6.972;2023-04-15T05:13:54;4.82;;;2.83;;
54193;SDS011;40102;50.906;6.972;2023-04-15T05:16:19;5.25;;;2.70;;
54193;SDS011;40102;50.906;6.972;2023-04-15T05:18:45;3.63;;;2.15;;
54193;SDS011;40102;50.906;6.972;2023-04-15T05:21:10;5.43;;;2.70;;
54193;SDS011;40102;50.906;6.972;2023-04-15T05:23:36;6.78;;;2.70;;
54193;SDS011;40102;50.906;6.972;2023-04-15T05:26:02;3.72;;;2.40;;
54193;SDS011;40102;50.906;6.972;2023-04-15T05:28:27;6.28;;;2.65;;
54193;SDS011;40102;50.906;6.972;2023-04-15T05:30:53;4.85;;;2.55;;
54193;SDS011;40102;50.906;6.972;2023-04-15T05:33:18;5.82;;;3.03;;
54193;SDS011;40102;50.906;6.972;2023-04-15T05:35:44;5.45;;;2.65;;
54193;SDS011;40102;50.906;6.972;2023-04-15T05:38:09;5.45;;;2.65;;
54193;SDS011;40102;50.906;6.972;2023-04-15T05:40:35;4.75;;;2.40;;
54193;SDS011;40102;50.906;6.972;2023-04-15T05:43:00;3.15;;;2.20;;
54193;SDS011;40102;50.906;6.972;2023-04-15T05:45:26;3.97;;;2.28;;
54193;SDS011;40102;50.906;6.972;2023-04-15T05:47:51;3.10;;;2.08;;
54193;SDS011;40102;50.906;6.972;2023-04-15T05:50:18;5.60;;;2.70;;
54193;SDS011;40102;50.906;6.972;2023-04-15T05:52:43;6.93;;;2.80;;
54193;SDS011;40102;50.906;6.972;2023-04-15T05:55:10;6.53;;;2.60;;
54193;SDS011;40102;50.906;6.972;2023-04-15T05:57:35;6.07;;;2.40;;
54193;SDS011;40102;50.906;6.972;2023-04-15T06:00:01;4.50;;;2.47;;
54193;SDS011;40102;50.906;6.972;2023-04-15T06:02:29;6.05;;;2.60;;
54193;SDS011;40102;50.906;6.972;2023-04-15T06:04:55;3.70;;;2.40;;
54193;SDS011;40102;50.906;6.972;2023-04-15T06:07:21;3.67;;;2.47;;
54193;SDS011;40102;50.906;6.972;2023-04-15T06:09:47;4.15;;;2.33;;
54193;SDS011;40102;50.906;6.972;2023-04-15T06:12:12;5.47;;;2.80;;
54193;SDS011;40102;50.906;6.972;2023-04-15T06:14:38;5.45;;;2.55;;
54193;SDS011;40102;50.906;6.972;2023-04-15T06:17:04;7.25;;;2.50;;
54193;SDS011;40102;50.906;6.972;2023-04-15T06:19:32;5.10;;;2.30;;
54193;SDS011;40102;50.906;6.972;2023-04-15T06:21:58;4.35;;;2.45;;
54193;SDS011;40102;50.906;6.972;2023-04-15T06:24:24;3.60;;;2.28;;
54193;SDS011;40102;50.906;6.972;2023-04-15T06:26:49;3.00;;;1.88;;
54193;SDS011;40102;50.906;6.972;2023-04-15T06:29:15;5.97;;;2.50;;
54193;SDS011;40102;50.906;6.972;2023-04-15T06:31:40;6.13;;;3.33;;
54193;SDS011;40102;50.906;6.972;2023-04-15T06:34:05;4.65;;;2.78;;
54193;SDS011;40102;50.906;6.972;2023-04-15T06:36:31;6.47;;;2.83;;
54193;SDS011;40102;50.906;6.972;2023-04-15T06:38:56;5.10;;;2.92;;
54193;SDS011;40102;50.906;6.972;2023-04-15T06:41:22;4.22;;;2.45;;
54193;SDS011;40102;50.906;6.972;2023-04-15T06:43:47;5.72;;;2.22;;
54193;SDS011;40102;50.906;6.972;2023-04-15T06:46:13;4.55;;;2.22;;
54193;SDS011;40102;50.906;6.972;2023-04-15T06:48:38;3.25;;;2.00;;
54193;SDS011;40102;50.906;6.972;2023-04-15T06:51:04;4.50;;;2.22;;
54193;SDS011;40102;50.906;6.972;2023-04-15T06:53:29;3.85;;;2.35;;
54193;SDS011;40102;50.906;6.972;2023-04-15T06:55:54;4.22;;;2.58;;
54193;SDS011;40102;50.906;6.972;2023-04-15T06:58:20;7.30;;;2.97;;
54193;SDS011;40102;50.906;6.972;2023-04-15T07:00:46;8.05;;;2.50;;
54193;SDS011;40102;50.906;6.972;2023-04-15T07:03:11;7.45;;;2.47;;
54193;SDS011;40102;50.906;6.972;2023-04-15T07:05:37;3.40;;;2.22;;
54193;SDS011;40102;50.906;6.972;2023-04-15T07:08:03;4.32;;;2.05;;
54193;SDS011;40102;50.906;6.972;2023-04-15T07:10:29;3.97;;;2.72;;
54193;SDS011;40102;50.906;6.972;2023-04-15T07:12:55;4.57;;;2.45;;
54193;SDS011;40102;50.906;6.972;2023-04-15T07:15:21;5.22;;;2.80;;
54193;SDS011;40102;50.906;6.972;2023-04-15T07:17:47;4.15;;;2.30;;
54193;SDS011;40102;50.906;6.972;2023-04-15T07:20:12;5.28;;;2.90;;
54193;SDS011;40102;50.906;6.972;2023-04-15T07:22:38;5.97;;;2.47;;
54193;SDS011;40102;50.906;6.972;2023-04-15T07:25:04;7.30;;;3.17;;
54193;SDS011;40102;50.906;6.972;2023-04-15T07:27:30;6.78;;;2.85;;
54193;SDS011;40102;50.906;6.972;2023-04-15T07:29:56;5.63;;;3.15;;
54193;SDS011;40102;50.906;6.972;2023-04-15T07:32:21;4.65;;;3.05;;
54193;SDS011;40102;50.906;6.972;2023-04-15T07:34:47;4.40;;;2.90;;
54193;SDS011;40102;50.906;6.972;2023-04-15T07:37:12;5.38;;;2.83;;
54193;SDS011;40102;50.906;6.972;2023-04-15T07:39:37;4.45;;;2.95;;
54193;SDS011;40102;50.906;6.972;2023-04-15T07:42:03;4.88;;;2.88;;
54193;SDS011;40102;50.906;6.972;2023-04-15T07:44:28;5.43;;;2.97;;
54193;SDS011;40102;50.906;6.972;2023-04-15T07:46:54;4.22;;;2.65;;
54193;SDS011;40102;50.906;6.972;2023-04-15T07:49:20;5.30;;;3.50;;
54193;SDS011;40102;50.906;6.972;2023-04-15T07:51:46;6.60;;;3.28;;
54193;SDS011;40102;50.906;6.972;2023-04-15T07:54:11;5.43;;;3.60;;
54193;SDS011;40102;50.906;6.972;2023-04-15T07:56:37;7.25;;;3.47;;
54193;SDS011;40102;50.906;6.972;2023-04-15T07:59:02;4.07;;;2.88;;
54193;SDS011;40102;50.906;6.972;2023-04-15T08:01:30;5.68;;;2.95;;
54193;SDS011;40102;50.906;6.972;2023-04-15T08:03:55;4.97;;;2.80;;
54193;SDS011;40102;50.906;6.972;2023-04-15T08:06:21;5.35;;;2.42;;
54193;SDS011;40102;50.906;6.972;2023-04-15T08:08:47;2.67;;;1.88;;
54193;SDS011;40102;50.906;6.972;2023-04-15T08:11:12;3.10;;;2.20;;
54193;SDS011;40102;50.906;6.972;2023-04-15T08:13:37;3.33;;;2.22;;
54193;SDS011;40102;50.906;6.972;2023-04-15T08:18:45;3.83;;;2.25;;
54193;SDS011;40102;50.906;6.972;2023-04-15T08:21:12;4.80;;;2.53;;
54193;SDS011;40102;50.906;6.972;2023-04-15T08:23:38;3.38;;;2.70;;
54193;SDS011;40102;50.906;6.972;2023-04-15T08:26:03;3.58;;;2.20;;
54193;SDS011;40102;50.906;6.972;2023-04-15T08:28:29;2.63;;;2.10;;
54193;SDS011;40102;50.906;6.972;2023-04-15T08:30:55;5.30;;;2.40;;
54193;SDS011;40102;50.906;6.972;2023-04-15T08:33:21;1.80;;;1.30;;
54193;SDS011;40102;50.906;6.972;2023-04-15T08:35:47;3.95;;;1.45;;
54193;SDS011;40102;50.906;6.972;2023-04-15T08:38:13;2.35;;;1.40;;
54193;SDS011;40102;50.906;6.972;2023-04-15T08:40:42;2.50;;;1.20;;
54193;SDS011;40102;50.906;6.972;2023-04-15T08:43:09;2.53;;;1.30;;
54193;SDS011;40102;50.906;6.972;2023-04-15T08:45:37;2.45;;;1.40;;
54193;SDS011;40102;50.906;6.972;2023-04-15T08:48:03;3.38;;;1.55;;
54193;SDS011;40102;50.906;6.972;2023-04-15T08:50:30;2.10;;;1.13;;
54193;SDS011;40102;50.906;6.972;2023-04-15T08:53:00;2.10;;;1.10;;
54193;SDS011;40102;50.906;6.972;2023-04-15T08:55:26;1.35;;;0.85;;
54193;SDS011;40102;50.906;6.972;2023-04-15T08:57:54;2.15;;;1.05;;
54193;SDS011;40102;50.906;6.972;2023-04-15T09:00:20;1.10;;;0.70;;
54193;SDS011;40102;50.906;6.972;2023-04-15T09:02:46;1.30;;;0.70;;
54193;SDS011;40102;50.906;6.972;2023-04-15T09:05:12;2.58;;;1.10;;
54193;SDS011;40102;50.906;6.972;2023-04-15T09:07:37;1.48;;;1.00;;
54193;SDS011;40102;50.906;6.972;2023-04-15T09:10:03;5.85;;;1.10;;
54193;SDS011;40102;50.906;6.972;2023-04-15T09:12:29;1.00;;;0.80;;
54193;SDS011;40102;50.906;6.972;2023-04-15T09:14:55;1.73;;;1.00;;
54193;SDS011;40102;50.906;6.972;2023-04-15T09:17:21;1.35;;;1.15;;
54193;SDS011;40102;50.906;6.972;2023-04-15T09:19:48;1.77;;;1.00;;
54193;SDS011;40102;50.906;6.972;2023-04-15T09:22:15;2.47;;;0.93;;
54193;SDS011;40102;50.906;6.972;2023-04-15T09:24:40;1.45;;;0.88;;
54193;SDS011;40102;50.906;6.972;2023-04-15T09:27:07;2.17;;;1.10;;
54193;SDS011;40102;50.906;6.972;2023-04-15T09:29:33;2.40;;;0.90;;
54193;SDS011;40102;50.906;6.972;2023-04-15T09:32:11;1.05;;;0.85;;
54193;SDS011;40102;50.906;6.972;2023-04-15T09:34:37;3.60;;;1.30;;
54193;SDS011;40102;50.906;6.972;2023-04-15T09:37:03;2.35;;;1.02;;
54193;SDS011;40102;50.906;6.972;2023-04-15T09:39:50;1.55;;;0.95;;
54193;SDS011;40102;50.906;6.972;2023-04-15T09:42:15;4.43;;;1.20;;
54193;SDS011;40102;50.906;6.972;2023-04-15T09:44:47;2.05;;;1.17;;
54193;SDS011;40102;50.906;6.972;2023-04-15T09:47:25;1.67;;;1.20;;
54193;SDS011;40102;50.906;6.972;2023-04-15T09:49:56;2.70;;;1.25;;
54193;SDS011;40102;50.906;6.972;2023-04-15T09:52:24;2.28;;;1.40;;
54193;SDS011;40102;50.906;6.972;2023-04-15T09:54:54;2.55;;;1.50;;
54193;SDS011;40102;50.906;6.972;2023-04-15T09:57:21;3.00;;;1.23;;
54193;SDS011;40102;50.906;6.972;2023-04-15T09:59:47;1.95;;;1.38;;
54193;SDS011;40102;50.906;6.972;2023-04-15T10:02:13;1.77;;;1.20;;
54193;SDS011;40102;50.906;6.972;2023-04-15T10:04:39;1.85;;;1.20;;
54193;SDS011;40102;50.906;6.972;2023-04-15T10:07:07;1.95;;;1.40;;
54193;SDS011;40102;50.906;6.972;2023-04-15T10:09:34;2.92;;;1.63;;
54193;SDS011;40102;50.906;6.972;2023-04-15T10:12:00;2.03;;;1.25;;
54193;SDS011;40102;50.906;6.972;2023-04-15T10:14:28;2.55;;;1.40;;
54193;SDS011;40102;50.906;6.972;2023-04-15T10:16:59;1.65;;;1.10;;
54193;SDS011;40102;50.906;6.972;2023-04-15T10:19:25;1.90;;;1.30;;
54193;SDS011;40102;50.906;6.972;2023-04-15T10:21:54;2.28;;;1.60;;
54193;SDS011;40102;50.906;6.972;2023-04-15T10:24:19;3.55;;;1.88;;
54193;SDS011;40102;50.906;6.972;2023-04-15T10:26:46;2.45;;;1.63;;
54193;SDS011;40102;50.906;6.972;2023-04-15T10:29:12;3.60;;;2.15;;
54193;SDS011;40102;50.906;6.972;2023-04-15T10:31:38;5.10;;;2.47;;
54193;SDS011;40102;50.906;6.972;2023-04-15T10:34:04;2.70;;;1.90;;
54193;SDS011;40102;50.906;6.972;2023-04-15T10:36:31;3.25;;;2.28;;
54193;SDS011;40102;50.906;6.972;2023-04-15T10:38:57;3.47;;;2.22;;
54193;SDS011;40102;50.906;6.972;2023-04-15T10:41:23;3.25;;;2.45;;
54193;SDS011;40102;50.906;6.972;2023-04-15T10:44:00;3.00;;;2.08;;
54193;SDS011;40102;50.906;6.972;2023-04-15T10:46:39;4.80;;;2.20;;
54193;SDS011;40102;50.906;6.972;2023-04-15T10:49:16;2.80;;;2.08;;
54193;SDS011;40102;50.906;6.972;2023-04-15T10:51:52;2.80;;;1.90;;
54193;SDS011;40102;50.906;6.972;2023-04-15T10:56:50;3.55;;;2.00;;
54193;SDS011;40102;50.906;6.972;2023-04-15T10:59:16;2.75;;;2.10;;
54193;SDS011;40102;50.906;6.972;2023-04-15T11:01:55;2.40;;;1.80;;
54193;SDS011;40102;50.906;6.972;2023-04-15T11:07:38;2.45;;;1.88;;
54193;SDS011;40102;50.906;6.972;2023-04-15T11:12:57;3.30;;;1.98;;
54193;SDS011;40102;50.906;6.972;2023-04-15T11:17:55;2.88;;;1.70;;
54193;SDS011;40102;50.906;6.972;2023-04-15T11:20:21;2.60;;;1.60;;
54193;SDS011;40102;50.906;6.972;2023-04-15T11:22:51;2.55;;;2.25;;
54193;SDS011;40102;50.906;6.972;2023-04-15T11:25:22;1.92;;;1.50;;
54193;SDS011;40102;50.906;6.972;2023-04-15T11:27:47;2.15;;;1.40;;
54193;SDS011;40102;50.906;6.972;2023-04-15T11:30:20;2.13;;;1.55;;
54193;SDS011;40102;50.906;6.972;2023-04-15T11:32:48;2.47;;;1.60;;
54193;SDS011;40102;50.906;6.972;2023-04-15T11:35:17;2.50;;;1.70;;
54193;SDS011;40102;50.906;6.972;2023-04-15T11:37:47;2.17;;;1.60;;
54193;SDS011;40102;50.906;6.972;2023-04-15T11:40:14;2.75;;;1.75;;
54193;SDS011;40102;50.906;6.972;2023-04-15T11:42:41;3.17;;;2.00;;
54193;SDS011;40102;50.906;6.972;2023-04-15T11:45:07;3.15;;;1.63;;
54193;SDS011;40102;50.906;6.972;2023-04-15T11:47:34;1.45;;;1.23;;
54193;SDS011;40102;50.906;6.972;2023-04-15T11:52:55;3.63;;;1.60;;
54193;SDS011;40102;50.906;6.972;2023-04-15T11:55:25;3.20;;;1.60;;
54193;SDS011;40102;50.906;6.972;2023-04-15T12:03:12;4.35;;;1.75;;
54193;SDS011;40102;50.906;6.972;2023-04-15T12:06:08;2.10;;;1.60;;
54193;SDS011;40102;50.906;6.972;2023-04-15T12:11:16;3.25;;;2.20;;
54193;SDS011;40102;50.906;6.972;2023-04-15T12:13:43;2.45;;;2.15;;
54193;SDS011;40102;50.906;6.972;2023-04-15T12:16:10;2.60;;;2.40;;
54193;SDS011;40102;50.906;6.972;2023-04-15T12:18:38;3.20;;;2.40;;
54193;SDS011;40102;50.906;6.972;2023-04-15T12:21:12;3.33;;;2.17;;
54193;SDS011;40102;50.906;6.972;2023-04-15T12:23:39;2.92;;;2.63;;
54193;SDS011;40102;50.906;6.972;2023-04-15T12:26:13;3.03;;;2.53;;
54193;SDS011;40102;50.906;6.972;2023-04-15T12:28:39;3.05;;;2.75;;
54193;SDS011;40102;50.906;6.972;2023-04-15T12:31:08;3.25;;;2.88;;
54193;SDS011;40102;50.906;6.972;2023-04-15T12:33:34;3.65;;;3.28;;
54193;SDS011;40102;50.906;6.972;2023-04-15T12:36:00;3.63;;;3.30;;
54193;SDS011;40102;50.906;6.972;2023-04-15T12:38:25;3.90;;;3.50;;
54193;SDS011;40102;50.906;6.972;2023-04-15T12:40:50;3.45;;;3.13;;
54193;SDS011;40102;50.906;6.972;2023-04-15T12:43:16;3.53;;;3.10;;
54193;SDS011;40102;50.906;6.972;2023-04-15T12:45:41;3.72;;;3.33;;
54193;SDS011;40102;50.906;6.972;2023-04-15T12:48:06;4.40;;;3.40;;
54193;SDS011;40102;50.906;6.972;2023-04-15T12:50:33;3.53;;;3.10;;
54193;SDS011;40102;50.906;6.972;2023-04-15T12:52:59;4.03;;;3.60;;
54193;SDS011;40102;50.906;6.972;2023-04-15T12:55:24;4.13;;;3.40;;
54193;SDS011;40102;50.906;6.972;2023-04-15T12:57:49;3.90;;;3.40;;
54193;SDS011;40102;50.906;6.972;2023-04-15T13:00:15;4.00;;;3.60;;
54193;SDS011;40102;50.906;6.972;2023-04-15T13:02:42;4.53;;;3.58;;
54193;SDS011;40102;50.906;6.972;2023-04-15T13:05:08;4.18;;;3.55;;
54193;SDS011;40102;50.906;6.972;2023-04-15T13:07:33;4.05;;;3.53;;
54193;SDS011;40102;50.906;6.972;2023-04-15T13:09:58;4.78;;;4.05;;
54193;SDS011;40102;50.906;6.972;2023-04-15T13:12:24;5.97;;;3.83;;
54193;SDS011;40102;50.906;6.972;2023-04-15T13:14:51;4.03;;;3.63;;
54193;SDS011;40102;50.906;6.972;2023-04-15T13:17:16;5.13;;;3.47;;
54193;SDS011;40102;50.906;6.972;2023-04-15T13:19:44;4.50;;;3.80;;
54193;SDS011;40102;50.906;6.972;2023-04-15T13:22:10;4.32;;;3.50;;
54193;SDS011;40102;50.906;6.972;2023-04-15T13:24:36;4.30;;;3.75;;
54193;SDS011;40102;50.906;6.972;2023-04-15T13:27:01;4.07;;;3.67;;
54193;SDS011;40102;50.906;6.972;2023-04-15T13:29:28;4.50;;;3.10;;
54193;SDS011;40102;50.906;6.972;2023-04-15T13:31:53;3.20;;;2.90;;
54193;SDS011;40102;50.906;6.972;2023-04-15T13:34:18;2.67;;;2.47;;
54193;SDS011;40102;50.906;6.972;2023-04-15T13:36:44;2.58;;;2.38;;
54193;SDS011;40102;50.906;6.972;2023-04-15T13:39:10;2.65;;;2.40;;
54193;SDS011;40102;50.906;6.972;2023-04-15T13:41:35;3.70;;;2.67;;
54193;SDS011;40102;50.906;6.972;2023-04-15T13:44:01;5.28;;;3.00;;
54193;SDS011;40102;50.906;6.972;2023-04-15T13:46:26;4.00;;;3.20;;
54193;SDS011;40102;50.906;6.972;2023-04-15T13:48:52;4.10;;;3.03;;
54193;SDS011;40102;50.906;6.972;2023-04-15T13:51:17;4.32;;;3.05;;
54193;SDS011;40102;50.906;6.972;2023-04-15T13:53:42;4.97;;;3.28;;
54193;SDS011;40102;50.906;6.972;2023-04-15T13:56:08;3.40;;;2.90;;
54193;SDS011;40102;50.906;6.972;2023-04-15T13:58:34;3.10;;;2.75;;
54193;SDS011;40102;50.906;6.972;2023-04-15T14:01:00;3.85;;;2.58;;
54193;SDS011;40102;50.906;6.972;2023-04-15T14:03:25;3.42;;;2.60;;
54193;SDS011;40102;50.906;6.972;2023-04-15T14:05:51;3.50;;;2.60;;
54193;SDS011;40102;50.906;6.972;2023-04-15T14:08:20;4.57;;;2.55;;
54193;SDS011;40102;50.906;6.972;2023-04-15T14:10:45;2.70;;;2.17;;
54193;SDS011;40102;50.906;6.972;2023-04-15T14:13:12;3.75;;;2.20;;
54193;SDS011;40102;50.906;6.972;2023-04-15T14:15:39;2.75;;;2.15;;
54193;SDS011;40102;50.906;6.972;2023-04-15T14:18:05;2.70;;;2.10;;
54193;SDS011;40102;50.906;6.972;2023-04-15T14:20:30;2.85;;;1.85;;
54193;SDS011;40102;50.906;6.972;2023-04-15T14:22:56;2.22;;;1.73;;
54193;SDS011;40102;50.906;6.972;2023-04-15T14:25:21;2.97;;;1.98;;
54193;SDS011;40102;50.906;6.972;2023-04-15T14:27:47;3.22;;;1.63;;
54193;SDS011;40102;50.906;6.972;2023-04-15T14:30:12;2.67;;;2.10;;
54193;SDS011;40102;50.906;6.972;2023-04-15T14:32:38;2.53;;;1.83;;
54193;SDS011;40102;50.906;6.972;2023-04-15T14:35:04;2.95;;;1.67;;
54193;SDS011;40102;50.906;6.972;2023-04-15T14:37:29;2.90;;;2.03;;
54193;SDS011;40102;50.906;6.972;2023-04-15T14:39:55;2.35;;;1.73;;
54193;SDS011;40102;50.906;6.972;2023-04-15T14:42:20;2.40;;;2.05;;
54193;SDS011;40102;50.906;6.972;2023-04-15T14:44:46;4.85;;;2.92;;
54193;SDS011;40102;50.906;6.972;2023-04-15T14:47:11;3.17;;;2.50;;
54193;SDS011;40102;50.906;6.972;2023-04-15T14:49:37;2.92;;;2.45;;
54193;SDS011;40102;50.906;6.972;2023-04-15T14:52:04;3.17;;;2.38;;
54193;SDS011;40102;50.906;6.972;2023-04-15T14:54:29;2.63;;;2.20;;
54193;SDS011;40102;50.906;6.972;2023-04-15T14:56:55;4.43;;;2.75;;
54193;SDS011;40102;50.906;6.972;2023-04-15T14:59:20;3.28;;;2.70;;
54193;SDS011;40102;50.906;6.972;2023-04-15T15:01:46;5.20;;;3.55;;
54193;SDS011;40102;50.906;6.972;2023-04-15T15:04:11;5.25;;;3.33;;
54193;SDS011;40102;50.906;6.972;2023-04-15T15:06:37;5.18;;;3.60;;